sensor_id;sensor_type;location;lat;lon;timestamp;temperature;humidity
6956;DHT22;50345;51.136;16.886;2023-07-20T00:01:13;17.30;99.90
6956;DHT22;50345;51.136;16.886;2023-07-20T00:03:39;17.20;99.90
6956;DHT22;50345;51.136;16.886;2023-07-20T00:06:05;17.20;99.90
6956;DHT22;50345;51.136;16.886;2023-07-20T00:08:30;17.20;99.90
6956;DHT22;50345;51.136;16.886;2023-07-20T00:10:56;17.20;99.90
6956;DHT22;50345;51.136;16.886;2023-07-20T00:13:22;17.10;99.90
6956;DHT22;50345;51.136;16.886;2023-07-20T00:15:48;17.10;99.90
6956;DHT22;50345;51.136;16.886;2023-07-20T00:18:14;17.00;99.90
6956;DHT22;50345;51.136;16.886;2023-07-20T00:20:39;17.00;99.90
6956;DHT22;50345;51.136;16.886;2023-07-20T00:23:05;17.00;99.90
6956;DHT22;50345;51.136;16.886;2023-07-20T00:25:32;17.00;99.90
6956;DHT22;50345;51.136;16.886;2023-07-20T00:27:58;16.90;99.90
6956;DHT22;50345;51.136;16.886;2023-07-20T00:30:24;16.90;99.90
6956;DHT22;50345;51.136;16.886;2023-07-20T00:32:50;16.80;99.90
6956;DHT22;50345;51.136;16.886;2023-07-20T00:35:15;16.80;99.90
6956;DHT22;50345;51.136;16.886;2023-07-20T00:37:41;16.70;99.90
6956;DHT22;50345;51.136;16.886;2023-07-20T00:40:07;16.70;99.90
6956;DHT22;50345;51.136;16.886;2023-07-20T00:42:35;16.70;99.90
6956;DHT22;50345;51.136;16.886;2023-07-20T00:45:01;16.70;99.90
6956;DHT22;50345;51.136;16.886;2023-07-20T00:47:27;16.80;99.90
6956;DHT22;50345;51.136;16.886;2023-07-20T00:49:53;16.80;99.90
6956;DHT22;50345;51.136;16.886;2023-07-20T00:52:21;16.90;99.90
6956;DHT22;50345;51.136;16.886;2023-07-20T00:54:47;16.90;99.90
6956;DHT22;50345;51.136;16.886;2023-07-20T00:57:17;16.90;99.90
6956;DHT22;50345;51.136;16.886;2023-07-20T00:59:43;17.00;99.90
6956;DHT22;50345;51.136;16.886;2023-07-20T01:02:09;17.00;99.90
6956;DHT22;50345;51.136;16.886;2023-07-20T01:04:35;17.10;99.90
6956;DHT22;50345;51.136;16.886;2023-07-20T01:07:30;17.10;99.90
6956;DHT22;50345;51.136;16.886;2023-07-20T01:12:46;17.20;99.90
6956;DHT22;50345;51.136;16.886;2023-07-20T01:15:13;17.20;99.90
6956;DHT22;50345;51.136;16.886;2023-07-20T01:17:39;17.20;99.90
6956;DHT22;50345;51.136;16.886;2023-07-20T01:20:06;17.20;99.90
6956;DHT22;50345;51.136;16.886;2023-07-20T01:22:52;17.20;99.90
6956;DHT22;50345;51.136;16.886;2023-07-20T01:28:35;17.10;99.90
6956;DHT22;50345;51.136;16.886;2023-07-20T01:31:21;17.10;99.90
6956;DHT22;50345;51.136;16.886;2023-07-20T01:33:48;17.00;99.90
6956;DHT22;50345;51.136;16.886;2023-07-20T01:36:16;16.90;99.90
6956;DHT22;50345;51.136;16.886;2023-07-20T01:38:43;16.80;99.90
6956;DHT22;50345;51.136;16.886;2023-07-20T01:41:10;16.80;99.90
6956;DHT22;50345;51.136;16.886;2023-07-20T01:43:36;16.80;99.90
6956;DHT22;50345;51.136;16.886;2023-07-20T01:46:02;16.60;99.90
6956;DHT22;50345;51.136;16.886;2023-07-20T01:48:27;16.60;99.90
6956;DHT22;50345;51.136;16.886;2023-07-20T01:50:53;16.60;99.90
6956;DHT22;50345;51.136;16.886;2023-07-20T01:53:20;16.60;99.90
6956;DHT22;50345;51.136;16.886;2023-07-20T01:55:46;16.50;99.90
6956;DHT22;50345;51.136;16.886;2023-07-20T01:58:11;16.50;99.90
6956;DHT22;50345;51.136;16.886;2023-07-20T02:00:37;16.50;99.90
6956;DHT22;50345;51.136;16.886;2023-07-20T02:03:03;16.50;99.90
6956;DHT22;50345;51.136;16.886;2023-07-20T02:05:29;16.50;99.90
6956;DHT22;50345;51.136;16.886;2023-07-20T02:07:55;16.40;99.90
6956;DHT22;50345;51.136;16.886;2023-07-20T02:10:20;16.40;99.90
6956;DHT22;50345;51.136;16.886;2023-07-20T02:12:46;16.30;99.90
6956;DHT22;50345;51.136;16.886;2023-07-20T02:15:11;16.30;99.90
6956;DHT22;50345;51.136;16.886;2023-07-20T02:17:39;16.30;99.90
6956;DHT22;50345;51.136;16.886;2023-07-20T02:20:07;16.30;99.90
6956;DHT22;50345;51.136;16.886;2023-07-20T02:22:34;16.30;99.90
6956;DHT22;50345;51.136;16.886;2023-07-20T02:25:00;16.30;99.90
6956;DHT22;50345;51.136;16.886;2023-07-20T02:27:26;16.20;99.90
6956;DHT22;50345;51.136;16.886;2023-07-20T02:29:51;16.20;99.90
6956;DHT22;50345;51.136;16.886;2023-07-20T02:34:43;16.10;99.90
6956;DHT22;50345;51.136;16.886;2023-07-20T02:37:08;16.10;99.90
6956;DHT22;50345;51.136;16.886;2023-07-20T02:39:34;16.10;99.90
6956;DHT22;50345;51.136;16.886;2023-07-20T02:42:00;16.00;99.90
6956;DHT22;50345;51.136;16.886;2023-07-20T02:44:25;16.00;99.90
6956;DHT22;50345;51.136;16.886;2023-07-20T02:46:51;16.00;99.90
6956;DHT22;50345;51.136;16.886;2023-07-20T02:49:16;16.00;99.90
6956;DHT22;50345;51.136;16.886;2023-07-20T02:51:42;15.90;99.90
6956;DHT22;50345;51.136;16.886;2023-07-20T02:54:08;15.90;99.90
6956;DHT22;50345;51.136;16.886;2023-07-20T02:56:33;15.90;99.90
6956;DHT22;50345;51.136;16.886;2023-07-20T02:59:01;15.70;99.90
6956;DHT22;50345;51.136;16.886;2023-07-20T03:01:26;15.90;99.90
6956;DHT22;50345;51.136;16.886;2023-07-20T03:03:54;15.90;99.90
6956;DHT22;50345;51.136;16.886;2023-07-20T03:06:20;15.40;99.90
6956;DHT22;50345;51.136;16.886;2023-07-20T03:08:45;15.90;99.90
6956;DHT22;50345;51.136;16.886;2023-07-20T03:11:14;15.80;99.90
6956;DHT22;50345;51.136;16.886;2023-07-20T03:13:41;15.80;99.90
6956;DHT22;50345;51.136;16.886;2023-07-20T03:18:38;15.80;99.90
6956;DHT22;50345;51.136;16.886;2023-07-20T03:21:05;15.80;99.90
6956;DHT22;50345;51.136;16.886;2023-07-20T03:23:31;15.80;99.90
6956;DHT22;50345;51.136;16.886;2023-07-20T03:25:56;15.80;99.90
6956;DHT22;50345;51.136;16.886;2023-07-20T03:28:22;15.80;99.90
6956;DHT22;50345;51.136;16.886;2023-07-20T03:30:56;15.40;99.90
6956;DHT22;50345;51.136;16.886;2023-07-20T03:33:31;15.90;99.90
6956;DHT22;50345;51.136;16.886;2023-07-20T03:35:57;15.90;99.90
6956;DHT22;50345;51.136;16.886;2023-07-20T03:38:25;16.00;99.90
6956;DHT22;50345;51.136;16.886;2023-07-20T03:43:17;16.10;99.90
6956;DHT22;50345;51.136;16.886;2023-07-20T03:45:43;16.20;99.90
6956;DHT22;50345;51.136;16.886;2023-07-20T03:48:08;16.20;99.90
6956;DHT22;50345;51.136;16.886;2023-07-20T03:50:34;16.20;99.90
6956;DHT22;50345;51.136;16.886;2023-07-20T03:53:00;16.30;99.90
6956;DHT22;50345;51.136;16.886;2023-07-20T03:55:25;16.30;99.90
6956;DHT22;50345;51.136;16.886;2023-07-20T03:57:51;16.40;99.90
6956;DHT22;50345;51.136;16.886;2023-07-20T04:00:17;16.50;99.90
6956;DHT22;50345;51.136;16.886;2023-07-20T04:02:43;16.60;99.90
6956;DHT22;50345;51.136;16.886;2023-07-20T04:05:09;16.60;99.90
6956;DHT22;50345;51.136;16.886;2023-07-20T04:07:35;16.80;99.90
6956;DHT22;50345;51.136;16.886;2023-07-20T04:10:00;16.80;99.90
6956;DHT22;50345;51.136;16.886;2023-07-20T04:12:26;16.90;99.90
6956;DHT22;50345;51.136;16.886;2023-07-20T04:14:51;17.00;99.90
6956;DHT22;50345;51.136;16.886;2023-07-20T04:17:17;17.00;99.90
6956;DHT22;50345;51.136;16.886;2023-07-20T04:19:43;17.00;99.90
6956;DHT22;50345;51.136;16.886;2023-07-20T04:22:09;17.00;99.90
6956;DHT22;50345;51.136;16.886;2023-07-20T04:34:19;17.20;99.90
6956;DHT22;50345;51.136;16.886;2023-07-20T04:36:44;17.30;99.90
6956;DHT22;50345;51.136;16.886;2023-07-20T04:39:10;17.30;99.90
6956;DHT22;50345;51.136;16.886;2023-07-20T04:41:35;17.30;99.90
6956;DHT22;50345;51.136;16.886;2023-07-20T04:44:01;17.30;99.90
6956;DHT22;50345;51.136;16.886;2023-07-20T04:46:27;17.30;99.90
6956;DHT22;50345;51.136;16.886;2023-07-20T04:48:52;17.40;99.90
6956;DHT22;50345;51.136;16.886;2023-07-20T04:58:38;17.60;99.90
6956;DHT22;50345;51.136;16.886;2023-07-20T05:01:04;17.30;99.90
6956;DHT22;50345;51.136;16.886;2023-07-20T05:03:29;17.60;99.90
6956;DHT22;50345;51.136;16.886;2023-07-20T05:05:55;17.50;99.90
6956;DHT22;50345;51.136;16.886;2023-07-20T05:08:20;17.60;99.90
6956;DHT22;50345;51.136;16.886;2023-07-20T05:10:47;17.60;99.90
6956;DHT22;50345;51.136;16.886;2023-07-20T05:13:13;17.50;99.90
6956;DHT22;50345;51.136;16.886;2023-07-20T05:15:39;17.50;99.90
6956;DHT22;50345;51.136;16.886;2023-07-20T05:18:05;17.60;99.90
6956;DHT22;50345;51.136;16.886;2023-07-20T05:27:52;18.10;99.90
6956;DHT22;50345;51.136;16.886;2023-07-20T05:30:18;18.10;99.90
6956;DHT22;50345;51.136;16.886;2023-07-20T05:40:06;18.40;99.90
6956;DHT22;50345;51.136;16.886;2023-07-20T05:42:33;18.50;99.90
6956;DHT22;50345;51.136;16.886;2023-07-20T05:44:58;18.50;99.90
6956;DHT22;50345;51.136;16.886;2023-07-20T05:47:24;18.60;99.90
6956;DHT22;50345;51.136;16.886;2023-07-20T05:49:50;18.60;99.90
6956;DHT22;50345;51.136;16.886;2023-07-20T05:52:15;18.60;99.90
6956;DHT22;50345;51.136;16.886;2023-07-20T05:54:41;18.60;99.90
6956;DHT22;50345;51.136;16.886;2023-07-20T05:57:07;18.60;99.90
6956;DHT22;50345;51.136;16.886;2023-07-20T06:01:58;18.90;99.90
6956;DHT22;50345;51.136;16.886;2023-07-20T06:06:50;19.20;99.90
6956;DHT22;50345;51.136;16.886;2023-07-20T07:37:03;20.60;99.90
6956;DHT22;50345;51.136;16.886;2023-07-20T07:39:29;20.60;99.90
6956;DHT22;50345;51.136;16.886;2023-07-20T11:23:52;25.80;82.10
6956;DHT22;50345;51.136;16.886;2023-07-20T11:26:18;25.80;82.70
6956;DHT22;50345;51.136;16.886;2023-07-20T11:31:15;24.60;91.10
6956;DHT22;50345;51.136;16.886;2023-07-20T11:36:09;23.90;99.90
6956;DHT22;50345;51.136;16.886;2023-07-20T16:22:22;29.60;40.80
6956;DHT22;50345;51.136;16.886;2023-07-20T16:32:05;28.90;76.20
6956;DHT22;50345;51.136;16.886;2023-07-20T16:36:57;27.30;79.50
6956;DHT22;50345;51.136;16.886;2023-07-20T16:41:50;26.00;55.20
6956;DHT22;50345;51.136;16.886;2023-07-20T16:44:16;25.70;70.60
6956;DHT22;50345;51.136;16.886;2023-07-20T16:46:42;25.40;63.60
6956;DHT22;50345;51.136;16.886;2023-07-20T16:49:07;25.10;64.50
6956;DHT22;50345;51.136;16.886;2023-07-20T16:51:34;25.00;67.10
6956;DHT22;50345;51.136;16.886;2023-07-20T16:54:00;24.90;66.20
6956;DHT22;50345;51.136;16.886;2023-07-20T16:56:27;24.80;71.00
6956;DHT22;50345;51.136;16.886;2023-07-20T16:58:52;24.80;72.70
6956;DHT22;50345;51.136;16.886;2023-07-20T17:01:18;24.90;73.30
6956;DHT22;50345;51.136;16.886;2023-07-20T17:03:43;25.00;73.20
6956;DHT22;50345;51.136;16.886;2023-07-20T17:06:09;25.10;71.80
6956;DHT22;50345;51.136;16.886;2023-07-20T17:20:46;24.20;53.50
6956;DHT22;50345;51.136;16.886;2023-07-20T17:23:12;24.20;60.00
6956;DHT22;50345;51.136;16.886;2023-07-20T17:50:06;23.40;54.90
6956;DHT22;50345;51.136;16.886;2023-07-20T17:52:31;23.20;55.40
6956;DHT22;50345;51.136;16.886;2023-07-20T17:57:25;22.90;55.60
6956;DHT22;50345;51.136;16.886;2023-07-20T17:59:50;22.80;56.40
6956;DHT22;50345;51.136;16.886;2023-07-20T18:02:16;22.80;56.80
6956;DHT22;50345;51.136;16.886;2023-07-20T18:04:42;22.80;57.20
6956;DHT22;50345;51.136;16.886;2023-07-20T18:07:07;22.70;57.30
6956;DHT22;50345;51.136;16.886;2023-07-20T18:09:36;22.70;57.00
6956;DHT22;50345;51.136;16.886;2023-07-20T18:12:02;22.60;57.30
6956;DHT22;50345;51.136;16.886;2023-07-20T18:19:19;22.40;57.80
6956;DHT22;50345;51.136;16.886;2023-07-20T18:21:45;22.30;58.70
6956;DHT22;50345;51.136;16.886;2023-07-20T18:24:10;22.30;59.20
6956;DHT22;50345;51.136;16.886;2023-07-20T18:26:36;22.30;59.50
6956;DHT22;50345;51.136;16.886;2023-07-20T18:29:02;22.20;59.30
6956;DHT22;50345;51.136;16.886;2023-07-20T18:31:27;22.20;59.90
6956;DHT22;50345;51.136;16.886;2023-07-20T18:33:55;22.20;59.20
6956;DHT22;50345;51.136;16.886;2023-07-20T18:36:21;22.20;59.70
6956;DHT22;50345;51.136;16.886;2023-07-20T18:38:46;22.20;60.10
6956;DHT22;50345;51.136;16.886;2023-07-20T18:41:12;22.10;60.40
6956;DHT22;50345;51.136;16.886;2023-07-20T18:43:37;22.10;60.60
6956;DHT22;50345;51.136;16.886;2023-07-20T18:46:03;22.10;60.60
6956;DHT22;50345;51.136;16.886;2023-07-20T18:48:29;22.00;61.00
6956;DHT22;50345;51.136;16.886;2023-07-20T18:50:55;21.90;61.40
6956;DHT22;50345;51.136;16.886;2023-07-20T18:53:20;21.90;61.80
6956;DHT22;50345;51.136;16.886;2023-07-20T18:55:46;21.80;63.10
6956;DHT22;50345;51.136;16.886;2023-07-20T18:58:12;21.70;63.10
6956;DHT22;50345;51.136;16.886;2023-07-20T19:00:37;21.70;63.50
6956;DHT22;50345;51.136;16.886;2023-07-20T19:03:03;21.60;63.90
6956;DHT22;50345;51.136;16.886;2023-07-20T19:05:29;21.50;64.60
6956;DHT22;50345;51.136;16.886;2023-07-20T19:07:55;21.50;65.20
6956;DHT22;50345;51.136;16.886;2023-07-20T19:10:22;21.40;65.50
6956;DHT22;50345;51.136;16.886;2023-07-20T19:12:47;21.30;66.20
6956;DHT22;50345;51.136;16.886;2023-07-20T19:15:13;21.30;66.90
6956;DHT22;50345;51.136;16.886;2023-07-20T19:17:40;21.20;67.70
6956;DHT22;50345;51.136;16.886;2023-07-20T19:20:06;21.20;68.40
6956;DHT22;50345;51.136;16.886;2023-07-20T19:22:32;21.10;69.20
6956;DHT22;50345;51.136;16.886;2023-07-20T19:24:58;21.00;69.70
6956;DHT22;50345;51.136;16.886;2023-07-20T19:27:24;20.90;70.80
6956;DHT22;50345;51.136;16.886;2023-07-20T19:32:16;20.80;72.10
6956;DHT22;50345;51.136;16.886;2023-07-20T19:34:41;20.70;74.30
6956;DHT22;50345;51.136;16.886;2023-07-20T19:39:33;20.70;76.70
6956;DHT22;50345;51.136;16.886;2023-07-20T19:41:59;20.60;78.80
6956;DHT22;50345;51.136;16.886;2023-07-20T19:44:24;20.50;80.20
6956;DHT22;50345;51.136;16.886;2023-07-20T19:49:19;20.30;83.10
6956;DHT22;50345;51.136;16.886;2023-07-20T19:51:45;20.30;98.80
6956;DHT22;50345;51.136;16.886;2023-07-20T19:54:11;20.30;99.30
6956;DHT22;50345;51.136;16.886;2023-07-20T19:56:36;20.20;99.90
6956;DHT22;50345;51.136;16.886;2023-07-20T19:59:03;20.20;99.90
6956;DHT22;50345;51.136;16.886;2023-07-20T20:01:29;20.10;99.90
6956;DHT22;50345;51.136;16.886;2023-07-20T20:03:55;20.10;99.90
6956;DHT22;50345;51.136;16.886;2023-07-20T20:06:21;20.10;99.90
6956;DHT22;50345;51.136;16.886;2023-07-20T20:08:47;20.00;99.90
6956;DHT22;50345;51.136;16.886;2023-07-20T20:11:13;20.00;99.90
6956;DHT22;50345;51.136;16.886;2023-07-20T20:13:39;19.90;99.90
6956;DHT22;50345;51.136;16.886;2023-07-20T20:18:33;19.70;99.90
6956;DHT22;50345;51.136;16.886;2023-07-20T20:23:25;19.50;99.90
6956;DHT22;50345;51.136;16.886;2023-07-20T20:33:14;19.40;99.90
6956;DHT22;50345;51.136;16.886;2023-07-20T20:38:07;18.70;99.90
6956;DHT22;50345;51.136;16.886;2023-07-20T20:40:34;19.40;99.90
6956;DHT22;50345;51.136;16.886;2023-07-20T20:42:59;19.40;99.90
6956;DHT22;50345;51.136;16.886;2023-07-20T20:45:25;19.40;99.90
6956;DHT22;50345;51.136;16.886;2023-07-20T20:47:51;19.40;99.90
6956;DHT22;50345;51.136;16.886;2023-07-20T20:57:38;19.20;99.90
6956;DHT22;50345;51.136;16.886;2023-07-20T21:29:18;18.90;99.90
6956;DHT22;50345;51.136;16.886;2023-07-20T21:31:43;19.00;99.90
6956;DHT22;50345;51.136;16.886;2023-07-20T21:34:09;19.00;99.90
6956;DHT22;50345;51.136;16.886;2023-07-20T21:36:34;19.00;99.90
6956;DHT22;50345;51.136;16.886;2023-07-20T21:39:00;19.00;99.90
6956;DHT22;50345;51.136;16.886;2023-07-20T21:41:27;19.00;99.90
6956;DHT22;50345;51.136;16.886;2023-07-20T21:43:52;18.90;99.90
6956;DHT22;50345;51.136;16.886;2023-07-20T21:48:44;18.80;99.90
6956;DHT22;50345;51.136;16.886;2023-07-20T21:51:10;18.80;99.90
6956;DHT22;50345;51.136;16.886;2023-07-20T21:53:36;18.80;99.90
6956;DHT22;50345;51.136;16.886;2023-07-20T22:18:02;18.60;99.90
6956;DHT22;50345;51.136;16.886;2023-07-20T22:37:33;18.30;99.90
6956;DHT22;50345;51.136;16.886;2023-07-20T22:54:39;18.10;99.90
6956;DHT22;50345;51.136;16.886;2023-07-20T23:23:55;17.80;99.90
6956;DHT22;50345;51.136;16.886;2023-07-20T23:26:21;17.90;99.90
6956;DHT22;50345;51.136;16.886;2023-07-20T23:28:49;17.80;99.90
6956;DHT22;50345;51.136;16.886;2023-07-20T23:31:15;17.80;99.90
6956;DHT22;50345;51.136;16.886;2023-07-20T23:33:40;17.80;99.90
6956;DHT22;50345;51.136;16.886;2023-07-20T23:36:06;17.80;99.90
6956;DHT22;50345;51.136;16.886;2023-07-20T23:38:38;17.70;99.90
6956;DHT22;50345;51.136;16.886;2023-07-20T23:41:06;17.70;99.90
6956;DHT22;50345;51.136;16.886;2023-07-20T23:43:34;17.70;99.90
